createdAt,value
2017-09-16T00:00:56.592Z,0
2017-09-16T00:01:57.222Z,0
2017-09-16T00:02:57.866Z,0
2017-09-16T00:03:58.500Z,0
2017-09-16T00:04:59.287Z,0
2017-09-16T00:05:59.916Z,0
2017-09-16T00:07:00.551Z,0
2017-09-16T00:08:01.190Z,0
2017-09-16T00:09:01.829Z,0
2017-09-16T00:10:02.467Z,0
2017-09-16T00:11:03.103Z,0
2017-09-16T00:12:03.737Z,0
2017-09-16T00:13:04.721Z,0
2017-09-16T00:14:05.359Z,0
2017-09-16T00:15:05.991Z,0
2017-09-16T00:16:06.631Z,0
2017-09-16T00:17:07.265Z,0
2017-09-16T00:18:07.899Z,0
2017-09-16T00:19:08.534Z,0
2017-09-16T00:20:09.169Z,0
2017-09-16T00:21:10.009Z,0
2017-09-16T00:22:10.642Z,0
2017-09-16T00:23:11.280Z,0
2017-09-16T00:24:11.912Z,0
2017-09-16T00:25:12.553Z,0
2017-09-16T00:26:13.192Z,0
2017-09-16T00:27:13.822Z,0
2017-09-16T00:28:14.461Z,0
2017-09-16T00:29:15.299Z,0
2017-09-16T00:30:15.928Z,0
2017-09-16T00:31:16.568Z,0
2017-09-16T00:32:17.198Z,0
2017-09-16T00:33:17.834Z,0
2017-09-16T00:34:18.468Z,0
2017-09-16T00:35:19.109Z,0
2017-09-16T00:36:19.748Z,0
2017-09-16T00:37:20.431Z,0
2017-09-16T00:38:21.072Z,0
2017-09-16T00:39:21.702Z,0
2017-09-16T00:40:22.336Z,0
2017-09-16T00:41:22.977Z,0
2017-09-16T00:42:23.609Z,0
2017-09-16T00:43:24.248Z,0
2017-09-16T00:44:24.880Z,0
2017-09-16T00:45:25.520Z,0
2017-09-16T00:46:26.364Z,0
2017-09-16T00:47:26.996Z,0
2017-09-16T00:48:27.634Z,0
2017-09-16T00:49:28.263Z,0
2017-09-16T00:50:28.911Z,0
2017-09-16T00:51:29.545Z,0
2017-09-16T00:52:30.175Z,0
2017-09-16T00:53:30.820Z,0
2017-09-16T00:54:31.611Z,0
2017-09-16T00:55:32.246Z,0
2017-09-16T00:56:32.876Z,0
2017-09-16T00:57:33.512Z,0
2017-09-16T00:58:34.148Z,0
2017-09-16T00:59:34.781Z,0
2017-09-16T01:00:35.417Z,0
2017-09-16T01:01:36.057Z,0
2017-09-16T01:02:36.894Z,0
2017-09-16T01:03:37.525Z,0
2017-09-16T01:04:38.167Z,0
2017-09-16T01:05:38.796Z,0
2017-09-16T01:06:39.434Z,0
2017-09-16T01:07:40.070Z,0
2017-09-16T01:08:40.728Z,0
2017-09-16T01:09:41.346Z,0
2017-09-16T01:10:42.175Z,0
2017-09-16T01:11:42.822Z,0
2017-09-16T01:12:43.457Z,0
2017-09-16T01:13:44.094Z,0
2017-09-16T01:14:44.725Z,0
2017-09-16T01:15:45.359Z,0
2017-09-16T01:16:45.994Z,0
2017-09-16T01:17:46.628Z,0
2017-09-16T01:18:47.262Z,0
2017-09-16T01:19:48.048Z,0
2017-09-16T01:20:48.688Z,0
2017-09-16T01:21:49.316Z,0
2017-09-16T01:22:49.959Z,0
2017-09-16T01:23:50.589Z,0
2017-09-16T01:24:51.230Z,0
2017-09-16T01:25:51.860Z,0
2017-09-16T01:26:52.501Z,0
2017-09-16T01:27:53.332Z,0
2017-09-16T01:28:53.966Z,0
2017-09-16T01:29:54.636Z,0
2017-09-16T01:30:55.297Z,0
2017-09-16T01:31:55.935Z,0
2017-09-16T01:32:56.566Z,0
2017-09-16T01:33:57.200Z,0
2017-09-16T01:34:58.642Z,0
2017-09-16T01:35:59.473Z,0
2017-09-16T01:37:00.159Z,0
2017-09-16T01:38:00.796Z,0
2017-09-16T01:39:01.435Z,0
2017-09-16T01:40:02.071Z,0
2017-09-16T01:41:02.709Z,0
2017-09-16T01:42:03.345Z,0
2017-09-16T01:43:03.977Z,0
2017-09-16T01:44:04.911Z,0
2017-09-16T01:45:05.546Z,0
2017-09-16T01:46:06.178Z,0
2017-09-16T01:47:06.825Z,0
2017-09-16T01:48:07.459Z,0
2017-09-16T01:49:08.090Z,0
2017-09-16T01:50:08.724Z,0
2017-09-16T01:51:09.366Z,0
2017-09-16T01:52:10.198Z,0
2017-09-16T01:53:10.840Z,0
2017-09-16T01:54:11.481Z,0
2017-09-16T01:55:12.114Z,0
2017-09-16T01:56:12.745Z,0
2017-09-16T01:57:13.379Z,0
2017-09-16T01:58:14.017Z,0
2017-09-16T01:59:14.655Z,0
2017-09-16T02:00:15.286Z,0
2017-09-16T02:01:16.074Z,0
2017-09-16T02:02:16.708Z,0
2017-09-16T02:03:17.347Z,0
2017-09-16T02:04:17.980Z,0
2017-09-16T02:05:18.613Z,0
2017-09-16T02:06:19.248Z,0
2017-09-16T02:07:19.882Z,0
2017-09-16T02:08:20.515Z,0
2017-09-16T02:09:21.400Z,0
2017-09-16T02:10:22.034Z,0
2017-09-16T02:11:22.672Z,0
2017-09-16T02:12:23.310Z,0
2017-09-16T02:13:23.947Z,0
2017-09-16T02:14:24.584Z,0
2017-09-16T02:15:25.214Z,0
2017-09-16T02:16:25.856Z,0
2017-09-16T02:17:26.687Z,0
2017-09-16T02:18:27.321Z,0
2017-09-16T02:19:27.955Z,0
2017-09-16T02:20:28.599Z,0
2017-09-16T02:21:29.226Z,0
2017-09-16T02:22:29.861Z,0
2017-09-16T02:23:30.495Z,0
2017-09-16T02:24:31.132Z,0
2017-09-16T02:25:31.964Z,0
2017-09-16T02:26:32.600Z,0
2017-09-16T02:27:33.235Z,0
2017-09-16T02:28:33.867Z,0
2017-09-16T02:29:34.502Z,0
2017-09-16T02:30:35.136Z,0
2017-09-16T02:31:35.775Z,0
2017-09-16T02:32:36.412Z,0
2017-09-16T02:33:37.044Z,0
2017-09-16T02:34:37.888Z,0
2017-09-16T02:35:38.521Z,0
2017-09-16T02:36:39.159Z,0
2017-09-16T02:37:39.789Z,0
2017-09-16T02:38:40.424Z,0
2017-09-16T02:39:41.068Z,0
2017-09-16T02:40:41.696Z,0
2017-09-16T02:41:42.330Z,0
2017-09-16T02:42:43.117Z,0
2017-09-16T02:43:43.756Z,0
2017-09-16T02:44:44.387Z,0
2017-09-16T02:45:45.026Z,0
2017-09-16T02:46:45.662Z,0
2017-09-16T02:47:46.294Z,0
2017-09-16T02:48:46.929Z,0
2017-09-16T02:49:47.563Z,0
2017-09-16T02:50:48.397Z,0
2017-09-16T02:51:49.033Z,0
2017-09-16T02:52:49.666Z,0
2017-09-16T02:53:50.303Z,0
2017-09-16T02:54:50.940Z,0
2017-09-16T02:55:51.573Z,0
2017-09-16T02:56:52.212Z,0
2017-09-16T02:57:52.845Z,0
2017-09-16T02:58:53.683Z,0
2017-09-16T02:59:54.316Z,0
2017-09-16T03:00:54.955Z,0
2017-09-16T03:01:55.593Z,0
2017-09-16T03:02:56.228Z,0
2017-09-16T03:03:56.866Z,0
2017-09-16T03:04:57.498Z,0
2017-09-16T03:05:58.136Z,0
2017-09-16T03:06:58.916Z,0
2017-09-16T03:07:59.552Z,0
2017-09-16T03:09:00.190Z,0
2017-09-16T03:10:00.825Z,0
2017-09-16T03:11:01.459Z,0
2017-09-16T03:12:02.092Z,0
2017-09-16T03:13:02.731Z,0
2017-09-16T03:14:03.365Z,0
2017-09-16T03:15:03.999Z,0
2017-09-16T03:16:04.834Z,0
2017-09-16T03:17:05.469Z,0
2017-09-16T03:18:06.104Z,0
2017-09-16T03:19:06.741Z,0
2017-09-16T03:20:07.430Z,0
2017-09-16T03:21:08.068Z,0
2017-09-16T03:22:08.704Z,0
2017-09-16T03:23:09.343Z,0
2017-09-16T03:24:10.121Z,0
2017-09-16T03:25:10.763Z,0
2017-09-16T03:26:11.391Z,0
2017-09-16T03:27:12.027Z,0
2017-09-16T03:28:12.664Z,0
2017-09-16T03:29:13.333Z,0
2017-09-16T03:30:13.939Z,0
2017-09-16T03:31:14.574Z,0
2017-09-16T03:32:15.411Z,0
2017-09-16T03:33:16.044Z,0
2017-09-16T03:34:16.687Z,0
2017-09-16T03:35:17.322Z,0
2017-09-16T03:36:17.967Z,0
2017-09-16T03:37:18.596Z,0
2017-09-16T03:38:19.227Z,0
2017-09-16T03:39:19.863Z,0
2017-09-16T03:40:20.645Z,0
2017-09-16T03:41:21.280Z,0
2017-09-16T03:42:21.914Z,0
2017-09-16T03:43:22.552Z,0
2017-09-16T03:44:23.183Z,0
2017-09-16T03:45:23.816Z,0
2017-09-16T03:46:24.456Z,0
2017-09-16T03:47:25.094Z,0
2017-09-16T03:48:25.726Z,0
2017-09-16T03:49:26.564Z,0
2017-09-16T03:50:27.208Z,0
2017-09-16T03:51:27.838Z,0
2017-09-16T03:52:28.522Z,0
2017-09-16T03:53:29.160Z,0
2017-09-16T03:54:29.813Z,0
2017-09-16T03:55:30.483Z,0
2017-09-16T03:56:31.115Z,0
2017-09-16T03:57:32.199Z,0
2017-09-16T03:58:32.839Z,0
2017-09-16T03:59:33.471Z,0
2017-09-16T04:00:34.105Z,0
2017-09-16T04:01:34.744Z,0
2017-09-16T04:02:35.375Z,0
2017-09-16T04:03:36.010Z,0
2017-09-16T04:04:36.653Z,0
2017-09-16T04:05:37.433Z,0
2017-09-16T04:06:38.068Z,0
2017-09-16T04:07:38.701Z,0
2017-09-16T04:08:39.334Z,0
2017-09-16T04:09:39.976Z,0
2017-09-16T04:10:40.611Z,0
2017-09-16T04:11:41.247Z,0
2017-09-16T04:12:41.884Z,0
2017-09-16T04:13:42.713Z,0
2017-09-16T04:14:43.358Z,0
2017-09-16T04:15:43.993Z,0
2017-09-16T04:16:44.623Z,0
2017-09-16T04:17:45.272Z,0
2017-09-16T04:18:45.895Z,0
2017-09-16T04:19:46.530Z,0
2017-09-16T04:20:47.163Z,0
2017-09-16T04:21:48.098Z,0
2017-09-16T04:22:48.731Z,0
2017-09-16T04:23:49.364Z,0
2017-09-16T04:24:50.001Z,0
2017-09-16T04:25:50.641Z,0
2017-09-16T04:26:51.277Z,0
2017-09-16T04:27:51.909Z,0
2017-09-16T04:28:52.541Z,0
2017-09-16T04:29:53.211Z,0
2017-09-16T04:30:54.017Z,0
2017-09-16T04:31:54.657Z,0
2017-09-16T04:32:55.296Z,0
2017-09-16T04:33:55.931Z,0
2017-09-16T04:34:56.573Z,0
2017-09-16T04:35:57.208Z,0
2017-09-16T04:36:57.847Z,0
2017-09-16T04:37:58.475Z,0
2017-09-16T04:39:00.062Z,0
2017-09-16T04:40:00.701Z,0
2017-09-16T04:41:01.343Z,0
2017-09-16T04:42:01.976Z,0
2017-09-16T04:43:02.613Z,0
2017-09-16T04:44:03.250Z,0
2017-09-16T04:45:03.884Z,0
2017-09-16T04:46:04.519Z,0
2017-09-16T04:47:05.351Z,0
2017-09-16T04:48:05.989Z,0
2017-09-16T04:49:06.623Z,0
2017-09-16T04:50:07.256Z,0
2017-09-16T04:51:07.890Z,0
2017-09-16T04:52:08.529Z,0
2017-09-16T04:53:09.160Z,0
2017-09-16T04:54:09.806Z,0
2017-09-16T04:55:10.693Z,0
2017-09-16T04:56:11.326Z,0
2017-09-16T04:57:11.968Z,0
2017-09-16T04:58:12.604Z,0
2017-09-16T04:59:13.242Z,0
2017-09-16T05:00:13.925Z,0
2017-09-16T05:01:14.558Z,0
2017-09-16T05:02:15.192Z,0
2017-09-16T05:03:15.826Z,0
2017-09-16T05:04:16.660Z,0
2017-09-16T05:05:17.296Z,0
2017-09-16T05:06:17.930Z,0
2017-09-16T05:07:18.565Z,0
2017-09-16T05:08:19.205Z,0
2017-09-16T05:09:19.842Z,0
2017-09-16T05:10:20.475Z,0
2017-09-16T05:11:21.115Z,0
2017-09-16T05:12:21.944Z,0
2017-09-16T05:13:22.578Z,0
2017-09-16T05:14:23.212Z,0
2017-09-16T05:15:23.852Z,0
2017-09-16T05:16:24.491Z,0
2017-09-16T05:17:25.132Z,0
2017-09-16T05:18:25.758Z,0
2017-09-16T05:19:26.398Z,0
2017-09-16T05:20:27.191Z,0
2017-09-16T05:21:27.818Z,0
2017-09-16T05:22:28.458Z,0
2017-09-16T05:23:29.089Z,0
2017-09-16T05:24:29.732Z,0
2017-09-16T05:25:30.365Z,0
2017-09-16T05:26:30.996Z,0
2017-09-16T05:27:31.630Z,0
2017-09-16T05:28:32.468Z,0
2017-09-16T05:29:37.102Z,0
2017-09-16T05:30:37.737Z,0
2017-09-16T05:31:38.377Z,0
2017-09-16T05:32:39.006Z,0
2017-09-16T05:33:39.641Z,0
2017-09-16T05:34:40.275Z,0
2017-09-16T05:35:40.915Z,0
2017-09-16T05:36:41.900Z,0
2017-09-16T05:37:42.532Z,0
2017-09-16T05:38:43.172Z,0
2017-09-16T05:39:43.810Z,0
2017-09-16T05:40:44.447Z,0
2017-09-16T05:41:45.077Z,0
2017-09-16T05:42:45.709Z,0
2017-09-16T05:43:46.349Z,0
2017-09-16T05:44:46.989Z,0
2017-09-16T05:45:47.872Z,0
2017-09-16T05:46:48.503Z,0
2017-09-16T05:47:49.148Z,0
2017-09-16T05:48:56.182Z,0
2017-09-16T05:49:56.821Z,0
2017-09-16T05:50:57.457Z,0
2017-09-16T05:51:58.088Z,0
2017-09-16T05:52:58.722Z,0
2017-09-16T05:53:59.656Z,0
2017-09-16T05:55:00.294Z,0
2017-09-16T05:56:00.928Z,0
2017-09-16T05:57:01.559Z,0
2017-09-16T05:58:02.198Z,0
2017-09-16T05:59:02.833Z,0
2017-09-16T06:00:03.471Z,0
2017-09-16T06:01:04.102Z,0
2017-09-16T06:02:04.985Z,0
2017-09-16T06:03:05.630Z,0
2017-09-16T06:04:06.258Z,0
2017-09-16T06:05:06.893Z,0
2017-09-16T06:06:07.578Z,0
2017-09-16T06:07:08.212Z,0
2017-09-16T06:08:08.844Z,0
2017-09-16T06:09:09.477Z,0
2017-09-16T06:10:10.312Z,0
2017-09-16T06:11:10.953Z,0
2017-09-16T06:12:11.589Z,0
2017-09-16T06:13:12.219Z,0
2017-09-16T06:14:12.853Z,0
2017-09-16T06:15:13.493Z,0
2017-09-16T06:16:14.125Z,0
2017-09-16T06:17:14.765Z,0
2017-09-16T06:18:15.603Z,0
2017-09-16T06:19:16.235Z,0
2017-09-16T06:20:16.867Z,0
2017-09-16T06:21:17.511Z,0
2017-09-16T06:22:18.147Z,0
2017-09-16T06:23:18.781Z,0
2017-09-16T06:24:19.418Z,0
2017-09-16T06:25:20.050Z,0
2017-09-16T06:26:20.694Z,0
2017-09-16T06:27:21.470Z,0
2017-09-16T06:28:22.105Z,0
2017-09-16T06:29:22.741Z,0
2017-09-16T06:30:23.372Z,0
2017-09-16T06:31:24.006Z,0
2017-09-16T06:32:24.642Z,0
2017-09-16T06:33:25.281Z,0
2017-09-16T06:34:25.913Z,0
2017-09-16T06:35:26.848Z,0
2017-09-16T06:36:27.480Z,0
2017-09-16T06:37:28.112Z,0
2017-09-16T06:38:28.751Z,0
2017-09-16T06:39:29.389Z,0
2017-09-16T06:40:30.026Z,0
2017-09-16T06:41:30.661Z,0
2017-09-16T06:42:31.292Z,0
2017-09-16T06:43:32.085Z,0
2017-09-16T06:44:32.720Z,0
2017-09-16T06:45:33.354Z,0
2017-09-16T06:46:33.993Z,0
2017-09-16T06:47:34.631Z,0
2017-09-16T06:48:35.266Z,0
2017-09-16T06:49:35.901Z,0
2017-09-16T06:50:36.542Z,0
2017-09-16T06:51:37.376Z,0
2017-09-16T06:52:38.018Z,0
2017-09-16T06:53:38.646Z,0
2017-09-16T06:54:39.279Z,0
2017-09-16T06:55:39.915Z,0
2017-09-16T06:56:40.548Z,0
2017-09-16T06:57:41.187Z,0
2017-09-16T06:58:41.818Z,0
2017-09-16T06:59:42.610Z,0
2017-09-16T07:00:43.244Z,0
2017-09-16T07:01:43.878Z,0
2017-09-16T07:02:44.522Z,0
2017-09-16T07:03:45.162Z,0
2017-09-16T07:04:45.800Z,0
2017-09-16T07:05:46.429Z,0
2017-09-16T07:06:47.112Z,0
2017-09-16T07:07:47.763Z,0
2017-09-16T07:08:48.588Z,0
2017-09-16T07:09:49.228Z,0
2017-09-16T07:10:49.857Z,0
2017-09-16T07:11:50.494Z,0
2017-09-16T07:12:51.126Z,0
2017-09-16T07:13:51.766Z,0
2017-09-16T07:14:52.396Z,0
2017-09-16T07:15:53.031Z,0
2017-09-16T07:16:53.870Z,0
2017-09-16T07:17:54.500Z,0
2017-09-16T07:18:55.142Z,0
2017-09-16T07:19:55.778Z,0
2017-09-16T07:20:56.408Z,0
2017-09-16T07:21:57.047Z,0
2017-09-16T07:22:57.681Z,0
2017-09-16T07:23:58.316Z,0
2017-09-16T07:24:59.154Z,0
2017-09-16T07:25:59.796Z,0
2017-09-16T07:27:00.432Z,0
2017-09-16T07:28:01.072Z,0
2017-09-16T07:29:01.697Z,0
2017-09-16T07:30:02.331Z,0
2017-09-16T07:31:02.970Z,0
2017-09-16T07:32:03.598Z,0
2017-09-16T07:33:04.435Z,0
2017-09-16T07:34:05.075Z,0
2017-09-16T07:35:05.704Z,0
2017-09-16T07:36:06.346Z,0
2017-09-16T07:37:06.974Z,0
2017-09-16T07:38:07.613Z,0
2017-09-16T07:39:08.255Z,0
2017-09-16T07:40:08.886Z,0
2017-09-16T07:41:09.524Z,0
2017-09-16T07:42:10.361Z,0
2017-09-16T07:43:10.998Z,0
2017-09-16T07:44:11.631Z,0
2017-09-16T07:45:12.263Z,0
2017-09-16T07:46:12.899Z,0
2017-09-16T07:47:13.531Z,0
2017-09-16T07:48:14.167Z,0
2017-09-16T07:49:14.802Z,0
2017-09-16T07:50:15.637Z,0
2017-09-16T07:51:16.271Z,0
2017-09-16T07:52:16.904Z,0
2017-09-16T07:53:17.544Z,0
2017-09-16T07:54:18.175Z,0
2017-09-16T07:55:18.864Z,0
2017-09-16T07:56:19.501Z,0
2017-09-16T07:57:20.133Z,0
2017-09-16T07:58:20.917Z,0
2017-09-16T07:59:21.557Z,0
2017-09-16T08:00:22.190Z,0
2017-09-16T08:01:22.833Z,0
2017-09-16T08:02:23.467Z,0
2017-09-16T08:03:24.098Z,0
2017-09-16T08:04:24.737Z,0
2017-09-16T08:05:25.380Z,0
2017-09-16T08:06:26.213Z,0
2017-09-16T08:07:26.858Z,0
2017-09-16T08:08:27.489Z,0
2017-09-16T08:09:28.125Z,0
2017-09-16T08:10:28.764Z,0
2017-09-16T08:11:29.394Z,0
2017-09-16T08:12:30.029Z,0
2017-09-16T08:13:30.712Z,0
2017-09-16T08:14:31.653Z,0
2017-09-16T08:15:32.288Z,0
2017-09-16T08:16:32.922Z,0
2017-09-16T08:17:33.553Z,0
2017-09-16T08:18:34.188Z,0
2017-09-16T08:19:34.830Z,0
2017-09-16T08:20:35.463Z,0
2017-09-16T08:21:36.096Z,0
2017-09-16T08:22:36.728Z,0
2017-09-16T08:23:37.516Z,0
2017-09-16T08:24:38.154Z,0
2017-09-16T08:25:38.797Z,0
2017-09-16T08:26:39.426Z,0
2017-09-16T08:27:40.059Z,0
2017-09-16T08:28:40.697Z,0
2017-09-16T08:29:41.327Z,0
2017-09-16T08:30:41.961Z,0
2017-09-16T08:31:42.800Z,0
2017-09-16T08:32:43.437Z,0
2017-09-16T08:33:44.066Z,0
2017-09-16T08:34:44.707Z,0
2017-09-16T08:35:45.342Z,0
2017-09-16T08:36:45.978Z,0
2017-09-16T08:37:46.612Z,0
2017-09-16T08:38:47.252Z,0
2017-09-16T08:39:48.184Z,0
2017-09-16T08:40:48.823Z,0
2017-09-16T08:41:49.462Z,0
2017-09-16T08:42:50.101Z,0
2017-09-16T08:43:50.737Z,0
2017-09-16T08:44:51.369Z,0
2017-09-16T08:45:52.010Z,0
2017-09-16T08:46:52.649Z,0
2017-09-16T08:47:53.633Z,0
2017-09-16T08:48:54.269Z,0
2017-09-16T08:49:54.905Z,0
2017-09-16T08:50:55.541Z,0
2017-09-16T08:51:56.178Z,0
2017-09-16T08:52:56.817Z,0
2017-09-16T08:53:57.450Z,0
2017-09-16T08:54:58.086Z,0
2017-09-16T08:55:58.722Z,0
2017-09-16T08:56:59.761Z,0
2017-09-16T08:58:00.393Z,0
2017-09-16T08:59:01.030Z,0
2017-09-16T09:00:01.665Z,0
2017-09-16T09:01:02.299Z,0
2017-09-16T09:02:02.935Z,0
2017-09-16T09:03:03.568Z,0
2017-09-16T09:04:04.204Z,0
2017-09-16T09:05:05.288Z,0
2017-09-16T09:06:05.933Z,0
2017-09-16T09:07:06.569Z,0
2017-09-16T09:08:07.205Z,0
2017-09-16T09:09:07.843Z,0
2017-09-16T09:10:08.478Z,0
2017-09-16T09:11:09.116Z,0
2017-09-16T09:12:09.751Z,0
2017-09-16T09:13:10.743Z,0
2017-09-16T09:14:11.377Z,0
2017-09-16T09:15:12.016Z,0
2017-09-16T09:16:12.653Z,0
2017-09-16T09:17:13.287Z,0
2017-09-16T09:18:13.927Z,0
2017-09-16T09:19:14.570Z,0
2017-09-16T09:20:15.209Z,0
2017-09-16T09:21:16.394Z,0
2017-09-16T09:22:17.026Z,0
2017-09-16T09:23:17.664Z,0
2017-09-16T09:24:18.306Z,0
2017-09-16T09:25:18.931Z,0
2017-09-16T09:26:19.567Z,0
2017-09-16T09:27:20.199Z,0
2017-09-16T09:28:20.845Z,0
2017-09-16T09:29:21.832Z,0
2017-09-16T09:30:22.475Z,0
2017-09-16T09:31:23.112Z,0
2017-09-16T09:32:23.741Z,0
2017-09-16T09:33:24.382Z,0
2017-09-16T09:34:25.011Z,0
2017-09-16T09:35:25.654Z,0
2017-09-16T09:36:26.290Z,0
2017-09-16T09:37:26.924Z,0
2017-09-16T09:38:27.906Z,0
2017-09-16T09:39:28.549Z,0
2017-09-16T09:40:29.179Z,0
2017-09-16T09:41:29.826Z,0
2017-09-16T09:42:30.451Z,0
2017-09-16T09:43:31.086Z,0
2017-09-16T09:44:31.726Z,0
2017-09-16T09:45:32.357Z,0
2017-09-16T09:46:33.243Z,0
2017-09-16T09:47:33.882Z,0
2017-09-16T09:48:34.519Z,0
2017-09-16T09:49:35.157Z,0
2017-09-16T09:50:35.790Z,0
2017-09-16T09:51:36.430Z,0
2017-09-16T09:52:37.061Z,0
2017-09-16T09:53:37.694Z,0
2017-09-16T09:54:38.583Z,0
2017-09-16T09:55:39.220Z,0
2017-09-16T09:56:39.851Z,0
2017-09-16T09:57:40.492Z,0
2017-09-16T09:58:41.125Z,0
2017-09-16T09:59:41.759Z,0
2017-09-16T10:00:42.393Z,0
2017-09-16T10:01:43.077Z,0
2017-09-16T10:02:43.961Z,0
2017-09-16T10:03:44.596Z,0
2017-09-16T10:04:45.230Z,0
2017-09-16T10:05:45.863Z,0
2017-09-16T10:06:46.500Z,0
2017-09-16T10:07:47.134Z,0
2017-09-16T10:08:47.772Z,0
2017-09-16T10:09:48.411Z,0
2017-09-16T10:10:49.050Z,0
2017-09-16T10:11:49.883Z,0
2017-09-16T10:12:50.524Z,0
2017-09-16T10:13:51.171Z,0
2017-09-16T10:14:51.859Z,0
2017-09-16T10:15:52.492Z,0
2017-09-16T10:16:53.176Z,0
2017-09-16T10:17:53.813Z,0
2017-09-16T10:18:54.451Z,0
2017-09-16T10:19:55.292Z,0
2017-09-16T10:20:55.937Z,0
2017-09-16T10:21:56.561Z,0
2017-09-16T10:22:57.195Z,0
2017-09-16T10:23:57.837Z,0
2017-09-16T10:24:58.531Z,0
2017-09-16T10:25:59.165Z,0
2017-09-16T10:26:59.814Z,0
2017-09-16T10:28:00.659Z,0
2017-09-16T10:29:01.291Z,0
2017-09-16T10:30:01.924Z,0
2017-09-16T10:31:02.559Z,0
2017-09-16T10:32:03.208Z,0
2017-09-16T10:33:03.831Z,0
2017-09-16T10:34:04.476Z,0
2017-09-16T10:35:05.110Z,0
2017-09-16T10:36:05.944Z,0
2017-09-16T10:37:06.581Z,0
2017-09-16T10:38:07.215Z,0
2017-09-16T10:39:07.854Z,0
2017-09-16T10:40:08.487Z,0
2017-09-16T10:41:09.122Z,0
2017-09-16T10:42:09.757Z,0
2017-09-16T10:43:10.390Z,0
2017-09-16T10:44:11.028Z,0
2017-09-16T10:45:11.963Z,0
2017-09-16T10:46:12.597Z,0
2017-09-16T10:47:13.231Z,0
2017-09-16T10:48:13.866Z,0
2017-09-16T10:49:14.513Z,0
2017-09-16T10:50:15.149Z,0
2017-09-16T10:51:15.781Z,0
2017-09-16T10:52:16.421Z,0
2017-09-16T10:53:17.408Z,0
2017-09-16T10:54:18.046Z,0
2017-09-16T10:55:18.678Z,0
2017-09-16T10:56:19.322Z,0
2017-09-16T10:57:19.953Z,0
2017-09-16T10:58:20.590Z,0
2017-09-16T10:59:21.227Z,0
2017-09-16T11:00:21.863Z,0
2017-09-16T11:01:22.701Z,0
2017-09-16T11:02:23.336Z,0
2017-09-16T11:03:23.975Z,0
2017-09-16T11:04:24.608Z,0
2017-09-16T11:05:25.194Z,0
2017-09-16T11:06:25.828Z,0
2017-09-16T11:07:26.471Z,0
2017-09-16T11:08:27.102Z,0
2017-09-16T11:09:28.037Z,0
2017-09-16T11:10:28.679Z,0
2017-09-16T11:11:29.308Z,0
2017-09-16T11:12:29.951Z,0
2017-09-16T11:13:30.583Z,0
2017-09-16T11:14:31.228Z,0
2017-09-16T11:15:31.859Z,0
2017-09-16T11:16:32.494Z,0
2017-09-16T11:17:33.336Z,0
2017-09-16T11:18:33.987Z,0
2017-09-16T11:19:34.615Z,0
2017-09-16T11:20:35.255Z,0
2017-09-16T11:21:35.889Z,0
2017-09-16T11:22:36.530Z,0
2017-09-16T11:23:37.161Z,0
2017-09-16T11:24:37.799Z,0
2017-09-16T11:25:38.436Z,0
2017-09-16T11:26:39.271Z,0
2017-09-16T11:27:39.911Z,0
2017-09-16T11:28:40.549Z,0
2017-09-16T11:29:41.195Z,0
2017-09-16T11:30:41.830Z,0
2017-09-16T11:31:42.468Z,0
2017-09-16T11:32:43.107Z,0
2017-09-16T11:33:43.737Z,0
2017-09-16T11:34:44.724Z,0
2017-09-16T11:35:45.360Z,0
2017-09-16T11:36:46.007Z,0
2017-09-16T11:37:46.636Z,0
2017-09-16T11:38:47.283Z,0
2017-09-16T11:39:47.922Z,0
2017-09-16T11:40:48.552Z,0
2017-09-16T11:41:49.193Z,0
2017-09-16T11:42:50.074Z,0
2017-09-16T11:43:50.714Z,0
2017-09-16T11:44:51.379Z,0
2017-09-16T11:45:51.942Z,0
2017-09-16T11:46:52.619Z,0
2017-09-16T11:47:53.255Z,0
2017-09-16T11:48:53.893Z,0
2017-09-16T11:49:54.532Z,15
2017-09-16T11:50:55.330Z,1780
2017-09-16T11:51:55.971Z,1770
2017-09-16T11:52:56.619Z,1740
2017-09-16T11:53:57.265Z,1725
2017-09-16T11:54:57.956Z,1835
2017-09-16T11:55:58.599Z,1835
2017-09-16T11:56:59.296Z,1815
2017-09-16T11:57:59.938Z,1860
2017-09-16T11:59:00.588Z,1810
2017-09-16T12:00:01.432Z,1810
2017-09-16T12:01:02.082Z,1750
2017-09-16T12:02:02.734Z,1595
2017-09-16T12:03:03.379Z,1435
2017-09-16T12:04:04.023Z,1285
2017-09-16T12:05:04.667Z,1150
2017-09-16T12:06:05.319Z,970
2017-09-16T12:07:05.962Z,840
2017-09-16T12:08:06.810Z,690
2017-09-16T12:09:07.456Z,645
2017-09-16T12:10:08.109Z,620
2017-09-16T12:11:08.756Z,605
2017-09-16T12:12:09.405Z,595
2017-09-16T12:13:10.051Z,585
2017-09-16T12:14:10.706Z,585
2017-09-16T12:15:11.351Z,600
2017-09-16T12:16:12.296Z,590
2017-09-16T12:17:12.946Z,585
2017-09-16T12:18:13.597Z,595
2017-09-16T12:19:14.248Z,590
2017-09-16T12:20:14.903Z,590
2017-09-16T12:21:15.561Z,610
2017-09-16T12:22:16.206Z,610
2017-09-16T12:23:16.854Z,595
2017-09-16T12:24:17.702Z,620
2017-09-16T12:25:18.356Z,625
2017-09-16T12:26:19.004Z,635
2017-09-16T12:27:19.656Z,640
2017-09-16T12:28:20.306Z,640
2017-09-16T12:29:20.962Z,650
2017-09-16T12:30:21.614Z,645
2017-09-16T12:31:22.267Z,650
2017-09-16T12:32:23.068Z,665
2017-09-16T12:33:23.723Z,660
2017-09-16T12:34:24.372Z,640
2017-09-16T12:35:25.023Z,665
2017-09-16T12:36:25.676Z,625
2017-09-16T12:37:26.333Z,630
2017-09-16T12:38:26.982Z,695
2017-09-16T12:39:27.630Z,685
2017-09-16T12:40:28.282Z,675
2017-09-16T12:41:29.033Z,655
2017-09-16T12:42:29.681Z,670
2017-09-16T12:43:30.337Z,690
2017-09-16T12:44:30.986Z,685
2017-09-16T12:45:31.640Z,705
2017-09-16T12:46:32.287Z,715
2017-09-16T12:47:32.938Z,735
2017-09-16T12:48:33.600Z,730
2017-09-16T12:49:34.396Z,730
2017-09-16T12:50:35.055Z,730
2017-09-16T12:51:35.703Z,790
2017-09-16T12:52:36.356Z,810
2017-09-16T12:53:37.010Z,835
2017-09-16T12:54:37.658Z,830
2017-09-16T12:55:38.317Z,805
2017-09-16T12:56:38.967Z,860
2017-09-16T12:57:39.866Z,915
2017-09-16T12:58:40.519Z,915
2017-09-16T12:59:41.174Z,880
2017-09-16T13:00:41.819Z,910
2017-09-16T13:01:42.476Z,945
2017-09-16T13:02:43.131Z,880
2017-09-16T13:03:43.778Z,860
2017-09-16T13:04:44.437Z,950
2017-09-16T13:05:45.539Z,1195
2017-09-16T13:06:46.193Z,1150
2017-09-16T13:07:46.848Z,1145
2017-09-16T13:08:47.495Z,1190
2017-09-16T13:09:48.156Z,1225
2017-09-16T13:10:48.811Z,1255
2017-09-16T13:11:49.462Z,1275
2017-09-16T13:12:50.121Z,1290
2017-09-16T13:13:50.770Z,1285
2017-09-16T13:14:51.830Z,1290
2017-09-16T13:15:52.491Z,1320
2017-09-16T13:16:53.151Z,1290
2017-09-16T13:17:53.803Z,1255
2017-09-16T13:18:54.454Z,1300
2017-09-16T13:19:55.118Z,1340
2017-09-16T13:20:55.765Z,1310
2017-09-16T13:21:56.422Z,1350
2017-09-16T13:22:57.284Z,1340
2017-09-16T13:23:57.983Z,1310
2017-09-16T13:24:58.640Z,1280
2017-09-16T13:25:59.297Z,1340
2017-09-16T13:26:59.952Z,1385
2017-09-16T13:28:00.614Z,1375
2017-09-16T13:29:01.269Z,1360
2017-09-16T13:30:01.931Z,1400
2017-09-16T13:31:02.739Z,1450
2017-09-16T13:32:03.391Z,1420
2017-09-16T13:33:04.044Z,1440
2017-09-16T13:34:04.709Z,1520
2017-09-16T13:35:05.369Z,1435
2017-09-16T13:36:06.018Z,1440
2017-09-16T13:37:06.680Z,1495
2017-09-16T13:38:07.335Z,1505
2017-09-16T13:39:08.201Z,1500
2017-09-16T13:40:08.860Z,1475
2017-09-16T13:41:09.515Z,1480
2017-09-16T13:42:10.169Z,1490
2017-09-16T13:43:10.822Z,1440
2017-09-16T13:44:11.486Z,1450
2017-09-16T13:45:12.194Z,1470
2017-09-16T13:46:12.856Z,1455
2017-09-16T13:47:13.711Z,1445
2017-09-16T13:48:14.367Z,1460
2017-09-16T13:49:15.041Z,1420
2017-09-16T13:50:15.738Z,1355
2017-09-16T13:51:16.412Z,1455
2017-09-16T13:52:17.046Z,1535
2017-09-16T13:53:17.702Z,1460
2017-09-16T13:54:18.358Z,1460
2017-09-16T13:55:19.014Z,1485
2017-09-16T13:56:19.819Z,1500
2017-09-16T13:57:20.479Z,1460
2017-09-16T13:58:21.146Z,1430
2017-09-16T13:59:21.791Z,1390
2017-09-16T14:00:22.451Z,1490
2017-09-16T14:01:23.110Z,1470
2017-09-16T14:02:23.769Z,1445
2017-09-16T14:03:24.427Z,1450
2017-09-16T14:04:25.284Z,1460
2017-09-16T14:05:25.937Z,1480
2017-09-16T14:06:26.595Z,1435
2017-09-16T14:07:27.249Z,1410
2017-09-16T14:08:27.907Z,1405
2017-09-16T14:09:28.562Z,1430
2017-09-16T14:10:29.220Z,1480
2017-09-16T14:11:29.877Z,1505
2017-09-16T14:12:30.678Z,1515
2017-09-16T14:13:31.340Z,1440
2017-09-16T14:14:31.998Z,1370
2017-09-16T14:15:32.653Z,1355
2017-09-16T14:16:33.306Z,1335
2017-09-16T14:17:33.966Z,1350
2017-09-16T14:18:34.629Z,1435
2017-09-16T14:19:35.282Z,1490
2017-09-16T14:20:36.237Z,1495
2017-09-16T14:21:36.949Z,1425
2017-09-16T14:22:37.601Z,1415
2017-09-16T14:23:38.257Z,1435
2017-09-16T14:24:38.918Z,1455
2017-09-16T14:25:39.578Z,1430
2017-09-16T14:26:40.232Z,1445
2017-09-16T14:27:40.900Z,1420
2017-09-16T14:28:41.542Z,1395
2017-09-16T14:29:42.402Z,1390
2017-09-16T14:30:43.056Z,1475
2017-09-16T14:31:43.712Z,1430
2017-09-16T14:32:44.366Z,1350
2017-09-16T14:33:45.019Z,1365
2017-09-16T14:34:45.677Z,1345
2017-09-16T14:35:46.334Z,1325
2017-09-16T14:36:46.988Z,1305
2017-09-16T14:37:47.850Z,1315
2017-09-16T14:38:48.505Z,1335
2017-09-16T14:39:49.162Z,1325
2017-09-16T14:40:49.817Z,1295